sensor_id;sensor_type;location;lat;lon;timestamp;pressure;altitude;pressure_sealevel;temperature;humidity
25650;BME280;13505;45.196;5.696;2023-04-27T06:02:43;99285.13;;;12.88;58.75
25650;BME280;13505;45.196;5.696;2023-04-27T06:07:34;99291.84;;;13.11;57.18
25650;BME280;13505;45.196;5.696;2023-04-27T06:12:26;99295.47;;;13.58;57.56
25650;BME280;13505;45.196;5.696;2023-04-27T06:17:16;99301.31;;;13.95;55.64
25650;BME280;13505;45.196;5.696;2023-04-27T06:22:08;99303.38;;;14.51;54.23
25650;BME280;13505;45.196;5.696;2023-04-27T06:27:00;99301.94;;;14.60;53.73
25650;BME280;13505;45.196;5.696;2023-04-27T06:31:50;99308.75;;;14.35;54.22
25650;BME280;13505;45.196;5.696;2023-04-27T06:36:40;99303.72;;;14.45;54.28
25650;BME280;13505;45.196;5.696;2023-04-27T06:41:31;99317.31;;;15.28;51.26
25650;BME280;13505;45.196;5.696;2023-04-27T06:46:23;99306.31;;;15.34;50.78
25650;BME280;13505;45.196;5.696;2023-04-27T06:51:13;99298.28;;;15.63;49.78
25650;BME280;13505;45.196;5.696;2023-04-27T06:56:04;99285.97;;;16.02;49.36
25650;BME280;13505;45.196;5.696;2023-04-27T07:00:55;99290.69;;;16.25;48.02
25650;BME280;13505;45.196;5.696;2023-04-27T07:05:46;99294.53;;;15.66;48.60
25650;BME280;13505;45.196;5.696;2023-04-27T07:10:36;99292.03;;;15.77;48.83
25650;BME280;13505;45.196;5.696;2023-04-27T07:15:27;99283.94;;;15.93;49.47
25650;BME280;13505;45.196;5.696;2023-04-27T07:20:18;99274.53;;;16.15;49.20
25650;BME280;13505;45.196;5.696;2023-04-27T07:25:09;99262.56;;;16.08;48.61
25650;BME280;13505;45.196;5.696;2023-04-27T07:50:31;99244.63;;;17.51;44.37
25650;BME280;13505;45.196;5.696;2023-04-27T07:55:22;99247.00;;;16.92;44.31
25650;BME280;13505;45.196;5.696;2023-04-27T08:00:15;99242.91;;;17.50;43.73
25650;BME280;13505;45.196;5.696;2023-04-27T08:05:08;99245.09;;;17.69;43.24
25650;BME280;13505;45.196;5.696;2023-04-27T08:09:58;99227.97;;;18.66;42.65
25650;BME280;13505;45.196;5.696;2023-04-27T08:14:54;99236.94;;;18.42;42.04
25650;BME280;13505;45.196;5.696;2023-04-27T08:19:45;99238.25;;;19.28;41.49
25650;BME280;13505;45.196;5.696;2023-04-27T08:29:36;99231.13;;;18.82;40.97
25650;BME280;13505;45.196;5.696;2023-04-27T08:34:27;99208.31;;;19.78;40.42
25650;BME280;13505;45.196;5.696;2023-04-27T08:39:17;99206.63;;;19.44;41.48
25650;BME280;13505;45.196;5.696;2023-04-27T08:44:08;99207.19;;;19.80;39.27
25650;BME280;13505;45.196;5.696;2023-04-27T08:48:58;99212.47;;;20.03;39.41
25650;BME280;13505;45.196;5.696;2023-04-27T08:53:53;99203.25;;;19.96;38.56
25650;BME280;13505;45.196;5.696;2023-04-27T08:58:44;99191.44;;;19.99;38.16
25650;BME280;13505;45.196;5.696;2023-04-27T09:03:35;99193.25;;;19.98;38.17
25650;BME280;13505;45.196;5.696;2023-04-27T09:08:26;99193.19;;;19.88;37.64
25650;BME280;13505;45.196;5.696;2023-04-27T09:13:16;99186.19;;;20.49;38.31
25650;BME280;13505;45.196;5.696;2023-04-27T09:18:13;99197.63;;;19.99;37.58
25650;BME280;13505;45.196;5.696;2023-04-27T09:23:05;99199.38;;;20.62;35.69
25650;BME280;13505;45.196;5.696;2023-04-27T09:27:56;99193.66;;;20.77;36.09
25650;BME280;13505;45.196;5.696;2023-04-27T09:47:49;99192.13;;;21.65;34.12
25650;BME280;13505;45.196;5.696;2023-04-27T09:52:40;99184.53;;;21.70;33.85
25650;BME280;13505;45.196;5.696;2023-04-27T09:57:34;99195.09;;;21.32;33.91
25650;BME280;13505;45.196;5.696;2023-04-27T10:02:26;99189.59;;;21.43;33.15
25650;BME280;13505;45.196;5.696;2023-04-27T10:07:19;99176.97;;;22.61;32.73
25650;BME280;13505;45.196;5.696;2023-04-27T10:12:40;99172.63;;;21.92;33.37
25650;BME280;13505;45.196;5.696;2023-04-27T10:17:33;99169.00;;;21.73;32.78
25650;BME280;13505;45.196;5.696;2023-04-27T10:22:44;99161.63;;;21.46;34.06
25650;BME280;13505;45.196;5.696;2023-04-27T10:27:38;99165.97;;;22.06;32.92
25650;BME280;13505;45.196;5.696;2023-04-27T10:32:28;99155.03;;;22.27;31.99
25650;BME280;13505;45.196;5.696;2023-04-27T10:37:19;99155.13;;;21.58;32.26
25650;BME280;13505;45.196;5.696;2023-04-27T10:42:11;99151.44;;;21.99;34.33
25650;BME280;13505;45.196;5.696;2023-04-27T10:47:15;99150.31;;;22.49;33.38
25650;BME280;13505;45.196;5.696;2023-04-27T10:52:07;99149.63;;;21.80;32.19
25650;BME280;13505;45.196;5.696;2023-04-27T11:01:53;99137.59;;;22.97;32.42
25650;BME280;13505;45.196;5.696;2023-04-27T11:06:44;99133.13;;;22.88;31.96
25650;BME280;13505;45.196;5.696;2023-04-27T11:11:37;99132.94;;;23.54;31.08
25650;BME280;13505;45.196;5.696;2023-04-27T11:16:32;99121.72;;;23.59;32.08
25650;BME280;13505;45.196;5.696;2023-04-27T11:21:23;99110.69;;;23.52;32.33
25650;BME280;13505;45.196;5.696;2023-04-27T11:26:18;99102.50;;;23.80;33.02
25650;BME280;13505;45.196;5.696;2023-04-27T11:31:09;99100.69;;;24.07;31.32
25650;BME280;13505;45.196;5.696;2023-04-27T11:36:00;99097.56;;;24.28;30.31
25650;BME280;13505;45.196;5.696;2023-04-27T11:45:51;99102.03;;;24.46;32.44
25650;BME280;13505;45.196;5.696;2023-04-27T11:50:46;99096.50;;;24.13;33.99
25650;BME280;13505;45.196;5.696;2023-04-27T11:55:40;99094.47;;;24.58;33.57
25650;BME280;13505;45.196;5.696;2023-04-27T12:00:30;99080.91;;;24.33;34.31
25650;BME280;13505;45.196;5.696;2023-04-27T12:10:21;99077.75;;;24.37;33.67
25650;BME280;13505;45.196;5.696;2023-04-27T12:15:11;99076.00;;;24.28;33.28
25650;BME280;13505;45.196;5.696;2023-04-27T12:20:02;99071.50;;;24.37;33.08
25650;BME280;13505;45.196;5.696;2023-04-27T12:24:52;99070.22;;;24.49;32.43
25650;BME280;13505;45.196;5.696;2023-04-27T12:29:43;99073.25;;;24.55;32.44
25650;BME280;13505;45.196;5.696;2023-04-27T12:34:33;99076.13;;;24.61;32.54
25650;BME280;13505;45.196;5.696;2023-04-27T12:39:23;99074.44;;;24.60;32.14
25650;BME280;13505;45.196;5.696;2023-04-27T12:44:16;99078.56;;;24.81;31.57
25650;BME280;13505;45.196;5.696;2023-04-27T12:49:07;99070.81;;;24.78;32.60
25650;BME280;13505;45.196;5.696;2023-04-27T12:53:58;99073.47;;;24.70;33.15
25650;BME280;13505;45.196;5.696;2023-04-27T12:58:48;99068.97;;;24.87;33.14
25650;BME280;13505;45.196;5.696;2023-04-27T13:03:46;99073.84;;;24.83;30.58
25650;BME280;13505;45.196;5.696;2023-04-27T13:08:37;99070.88;;;25.11;31.39
25650;BME280;13505;45.196;5.696;2023-04-27T13:13:27;99073.88;;;25.16;31.70
25650;BME280;13505;45.196;5.696;2023-04-27T13:18:17;99064.47;;;25.29;31.13
25650;BME280;13505;45.196;5.696;2023-04-27T13:23:08;99060.41;;;25.25;30.80
25650;BME280;13505;45.196;5.696;2023-04-27T13:27:58;99065.53;;;24.68;29.63
25650;BME280;13505;45.196;5.696;2023-04-27T13:32:49;99060.59;;;24.47;29.72
25650;BME280;13505;45.196;5.696;2023-04-27T13:37:39;99048.97;;;24.55;30.66
25650;BME280;13505;45.196;5.696;2023-04-27T13:42:31;99048.56;;;24.84;30.06
25650;BME280;13505;45.196;5.696;2023-04-27T13:47:21;99036.63;;;24.95;29.43
25650;BME280;13505;45.196;5.696;2023-04-27T13:52:12;99032.44;;;25.09;29.76
25650;BME280;13505;45.196;5.696;2023-04-27T13:57:03;99041.44;;;24.66;29.81
25650;BME280;13505;45.196;5.696;2023-04-27T14:01:53;99035.38;;;24.73;30.35
25650;BME280;13505;45.196;5.696;2023-04-27T14:06:44;99038.22;;;24.63;30.33
25650;BME280;13505;45.196;5.696;2023-04-27T14:11:34;99028.50;;;24.78;30.77
25650;BME280;13505;45.196;5.696;2023-04-27T14:16:25;99025.59;;;24.72;30.53
25650;BME280;13505;45.196;5.696;2023-04-27T14:21:15;99024.13;;;24.77;30.04
25650;BME280;13505;45.196;5.696;2023-04-27T14:26:06;99024.44;;;24.74;30.04
25650;BME280;13505;45.196;5.696;2023-04-27T14:30:56;99024.44;;;24.74;29.67
25650;BME280;13505;45.196;5.696;2023-04-27T14:35:46;99022.63;;;24.91;29.66
25650;BME280;13505;45.196;5.696;2023-04-27T14:40:37;99032.84;;;24.71;30.33
25650;BME280;13505;45.196;5.696;2023-04-27T14:45:27;99023.41;;;24.67;31.88
25650;BME280;13505;45.196;5.696;2023-04-27T14:50:17;99028.78;;;24.50;32.24
25650;BME280;13505;45.196;5.696;2023-04-27T14:55:09;99020.59;;;24.93;31.49
25650;BME280;13505;45.196;5.696;2023-04-27T15:00:00;99017.41;;;25.06;32.78
25650;BME280;13505;45.196;5.696;2023-04-27T15:04:51;99015.88;;;24.95;32.94
25650;BME280;13505;45.196;5.696;2023-04-27T15:09:41;99007.28;;;25.00;32.59
25650;BME280;13505;45.196;5.696;2023-04-27T15:14:31;99004.91;;;25.30;31.85
25650;BME280;13505;45.196;5.696;2023-04-27T15:19:21;99006.09;;;25.28;32.12
25650;BME280;13505;45.196;5.696;2023-04-27T15:24:12;99012.69;;;24.92;32.77
25650;BME280;13505;45.196;5.696;2023-04-27T15:29:03;99012.63;;;24.67;32.21
25650;BME280;13505;45.196;5.696;2023-04-27T15:33:53;99008.81;;;24.86;32.86
25650;BME280;13505;45.196;5.696;2023-04-27T15:38:43;99018.06;;;25.00;32.05
25650;BME280;13505;45.196;5.696;2023-04-27T15:43:34;99015.06;;;25.03;31.37
25650;BME280;13505;45.196;5.696;2023-04-27T15:48:24;99005.41;;;24.84;31.30
25650;BME280;13505;45.196;5.696;2023-04-27T15:58:21;99000.97;;;24.50;32.43
25650;BME280;13505;45.196;5.696;2023-04-27T16:08:12;99003.81;;;24.40;32.78
25650;BME280;13505;45.196;5.696;2023-04-27T16:13:06;99002.06;;;24.22;32.78
25650;BME280;13505;45.196;5.696;2023-04-27T16:42:50;98999.84;;;23.83;33.11
25650;BME280;13505;45.196;5.696;2023-04-27T16:47:45;99000.16;;;23.80;32.75
25650;BME280;13505;45.196;5.696;2023-04-27T16:52:36;99001.84;;;23.81;33.34
25650;BME280;13505;45.196;5.696;2023-04-27T16:57:26;99007.59;;;23.51;34.17
25650;BME280;13505;45.196;5.696;2023-04-27T17:02:17;99005.84;;;23.42;35.11
25650;BME280;13505;45.196;5.696;2023-04-27T17:07:08;99004.47;;;23.38;34.79
25650;BME280;13505;45.196;5.696;2023-04-27T17:27:45;99010.81;;;22.92;36.09
25650;BME280;13505;45.196;5.696;2023-04-27T17:32:36;99005.44;;;22.74;36.63
25650;BME280;13505;45.196;5.696;2023-04-27T17:37:26;99015.28;;;22.65;36.28
25650;BME280;13505;45.196;5.696;2023-04-27T17:42:17;99015.03;;;22.58;36.53
25650;BME280;13505;45.196;5.696;2023-04-27T17:47:07;99015.81;;;22.41;36.93
25650;BME280;13505;45.196;5.696;2023-04-27T17:51:58;99020.53;;;22.29;37.45
25650;BME280;13505;45.196;5.696;2023-04-27T17:56:48;99027.81;;;22.19;37.46
